sensor_id;sensor_type;location;lat;lon;timestamp;P1;durP1;ratioP1;P2;durP2;ratioP2
68212;SDS011;55035;47.792;8.724;2023-04-02T20:30:21;4.40;;;1.10;;
68212;SDS011;55035;47.792;8.724;2023-04-02T20:32:48;7.80;;;2.65;;
68212;SDS011;55035;47.792;8.724;2023-04-02T20:35:15;10.90;;;3.90;;
68212;SDS011;55035;47.792;8.724;2023-04-02T20:37:43;8.15;;;3.00;;
68212;SDS011;55035;47.792;8.724;2023-04-02T20:40:10;6.00;;;2.20;;
68212;SDS011;55035;47.792;8.724;2023-04-02T20:42:37;6.25;;;2.55;;
68212;SDS011;55035;47.792;8.724;2023-04-02T20:45:04;6.00;;;2.33;;
68212;SDS011;55035;47.792;8.724;2023-04-02T20:47:34;4.95;;;1.50;;
68212;SDS011;55035;47.792;8.724;2023-04-02T20:50:01;6.25;;;1.70;;
68212;SDS011;55035;47.792;8.724;2023-04-02T20:52:31;5.20;;;1.75;;
68212;SDS011;55035;47.792;8.724;2023-04-02T20:54:58;5.20;;;1.55;;
68212;SDS011;55035;47.792;8.724;2023-04-02T20:57:27;5.10;;;1.58;;
68212;SDS011;55035;47.792;8.724;2023-04-02T20:59:57;5.93;;;1.92;;
68212;SDS011;55035;47.792;8.724;2023-04-02T21:02:27;6.75;;;1.83;;
68212;SDS011;55035;47.792;8.724;2023-04-02T21:04:57;5.38;;;1.80;;
68212;SDS011;55035;47.792;8.724;2023-04-02T21:07:25;5.60;;;1.80;;
68212;SDS011;55035;47.792;8.724;2023-04-02T21:09:52;7.40;;;2.10;;
68212;SDS011;55035;47.792;8.724;2023-04-02T21:12:19;7.30;;;2.40;;
68212;SDS011;55035;47.792;8.724;2023-04-02T21:14:46;7.00;;;2.63;;
68212;SDS011;55035;47.792;8.724;2023-04-02T21:17:13;6.97;;;2.70;;
68212;SDS011;55035;47.792;8.724;2023-04-02T21:19:40;7.57;;;3.03;;
68212;SDS011;55035;47.792;8.724;2023-04-02T21:22:09;7.50;;;2.80;;
68212;SDS011;55035;47.792;8.724;2023-04-02T21:24:35;7.32;;;2.55;;
68212;SDS011;55035;47.792;8.724;2023-04-02T21:27:02;8.55;;;3.33;;
68212;SDS011;55035;47.792;8.724;2023-04-02T21:29:30;10.07;;;4.30;;
68212;SDS011;55035;47.792;8.724;2023-04-02T21:31:56;8.90;;;4.20;;
68212;SDS011;55035;47.792;8.724;2023-04-02T21:34:23;9.85;;;3.97;;
68212;SDS011;55035;47.792;8.724;2023-04-02T21:36:50;10.27;;;4.10;;
68212;SDS011;55035;47.792;8.724;2023-04-02T21:39:19;9.50;;;4.28;;
68212;SDS011;55035;47.792;8.724;2023-04-02T21:41:46;9.43;;;4.18;;
68212;SDS011;55035;47.792;8.724;2023-04-02T21:44:15;9.70;;;4.45;;
68212;SDS011;55035;47.792;8.724;2023-04-02T21:46:42;12.82;;;4.55;;
68212;SDS011;55035;47.792;8.724;2023-04-02T21:49:09;9.48;;;4.07;;
68212;SDS011;55035;47.792;8.724;2023-04-02T21:51:37;8.82;;;3.40;;
68212;SDS011;55035;47.792;8.724;2023-04-02T21:54:04;11.07;;;4.75;;
68212;SDS011;55035;47.792;8.724;2023-04-02T21:56:33;11.32;;;5.38;;
68212;SDS011;55035;47.792;8.724;2023-04-02T21:59:01;13.35;;;5.50;;
68212;SDS011;55035;47.792;8.724;2023-04-02T22:01:29;8.95;;;3.70;;
68212;SDS011;55035;47.792;8.724;2023-04-02T22:03:56;8.82;;;3.67;;
68212;SDS011;55035;47.792;8.724;2023-04-02T22:06:24;9.77;;;3.85;;
68212;SDS011;55035;47.792;8.724;2023-04-02T22:08:51;10.27;;;3.83;;
68212;SDS011;55035;47.792;8.724;2023-04-02T22:11:19;11.15;;;4.57;;
68212;SDS011;55035;47.792;8.724;2023-04-02T22:13:47;11.27;;;4.82;;
68212;SDS011;55035;47.792;8.724;2023-04-02T22:16:15;11.20;;;4.57;;
68212;SDS011;55035;47.792;8.724;2023-04-02T22:18:42;11.93;;;5.40;;
68212;SDS011;55035;47.792;8.724;2023-04-02T22:21:09;10.80;;;4.45;;
68212;SDS011;55035;47.792;8.724;2023-04-02T22:23:36;11.60;;;5.13;;
68212;SDS011;55035;47.792;8.724;2023-04-02T22:26:04;9.98;;;4.00;;
68212;SDS011;55035;47.792;8.724;2023-04-02T22:28:31;13.00;;;5.47;;
68212;SDS011;55035;47.792;8.724;2023-04-02T22:31:03;13.65;;;6.00;;
68212;SDS011;55035;47.792;8.724;2023-04-02T22:33:31;13.55;;;6.07;;
68212;SDS011;55035;47.792;8.724;2023-04-02T22:35:58;12.57;;;5.50;;
68212;SDS011;55035;47.792;8.724;2023-04-02T22:38:24;16.17;;;6.60;;
68212;SDS011;55035;47.792;8.724;2023-04-02T22:40:51;10.55;;;4.00;;
68212;SDS011;55035;47.792;8.724;2023-04-02T22:43:18;13.63;;;5.43;;
68212;SDS011;55035;47.792;8.724;2023-04-02T22:45:46;14.57;;;5.88;;
68212;SDS011;55035;47.792;8.724;2023-04-02T22:48:14;11.43;;;4.40;;
68212;SDS011;55035;47.792;8.724;2023-04-02T22:50:41;10.90;;;4.25;;
68212;SDS011;55035;47.792;8.724;2023-04-02T22:53:07;8.27;;;3.42;;
68212;SDS011;55035;47.792;8.724;2023-04-02T22:55:36;12.32;;;4.45;;
68212;SDS011;55035;47.792;8.724;2023-04-02T22:58:03;11.13;;;4.35;;
68212;SDS011;55035;47.792;8.724;2023-04-02T23:00:29;10.27;;;4.35;;
68212;SDS011;55035;47.792;8.724;2023-04-02T23:02:56;11.68;;;4.35;;
68212;SDS011;55035;47.792;8.724;2023-04-02T23:05:24;14.02;;;5.28;;
68212;SDS011;55035;47.792;8.724;2023-04-02T23:07:51;9.65;;;3.63;;
68212;SDS011;55035;47.792;8.724;2023-04-02T23:10:18;12.57;;;4.60;;
68212;SDS011;55035;47.792;8.724;2023-04-02T23:12:45;12.25;;;4.47;;
68212;SDS011;55035;47.792;8.724;2023-04-02T23:15:12;11.73;;;4.60;;
68212;SDS011;55035;47.792;8.724;2023-04-02T23:17:38;10.43;;;3.80;;
68212;SDS011;55035;47.792;8.724;2023-04-02T23:20:06;13.18;;;5.15;;
68212;SDS011;55035;47.792;8.724;2023-04-02T23:22:35;12.73;;;3.90;;
68212;SDS011;55035;47.792;8.724;2023-04-02T23:25:02;9.32;;;3.83;;
68212;SDS011;55035;47.792;8.724;2023-04-02T23:27:29;11.13;;;3.67;;
68212;SDS011;55035;47.792;8.724;2023-04-02T23:29:56;10.88;;;3.78;;
68212;SDS011;55035;47.792;8.724;2023-04-02T23:32:23;9.98;;;3.92;;
68212;SDS011;55035;47.792;8.724;2023-04-02T23:34:50;8.82;;;3.33;;
68212;SDS011;55035;47.792;8.724;2023-04-02T23:37:17;10.65;;;4.60;;
68212;SDS011;55035;47.792;8.724;2023-04-02T23:39:45;9.95;;;3.33;;
68212;SDS011;55035;47.792;8.724;2023-04-02T23:42:12;10.95;;;4.55;;
68212;SDS011;55035;47.792;8.724;2023-04-02T23:44:40;12.35;;;4.63;;
68212;SDS011;55035;47.792;8.724;2023-04-02T23:47:07;8.95;;;3.10;;
68212;SDS011;55035;47.792;8.724;2023-04-02T23:49:33;8.93;;;3.75;;
68212;SDS011;55035;47.792;8.724;2023-04-02T23:52:00;8.52;;;3.45;;
68212;SDS011;55035;47.792;8.724;2023-04-02T23:54:27;11.05;;;3.55;;
68212;SDS011;55035;47.792;8.724;2023-04-02T23:56:55;10.65;;;4.18;;
68212;SDS011;55035;47.792;8.724;2023-04-02T23:59:22;9.57;;;3.53;;
